Ater, Texas
Current Conditions -  °F | °C
As of 1:15 AM on Thursday 23 Oct 2014 (Local Time) from KGOP Reporting Station
Clear Clear  
Wind Chill: 19°   Ceiling: Unl
Heat Index: 19°   Visibility: 10mi
Dew Point: 15°   Wind: 0mph
Humidity: 78%   Direction: NA
Pressure: 30.13"   Gusts: NA
Location:  31.392°N, 97.7452°W
Report Text: KGOP 230615Z AUTO 00000KT 10SM CLR 19/15 A3013 RMK AO2
Loading
Personal Weather Stations






























Interactive Weather Map
Tropical Storm Tracking
New forecast layout! Learn more

10-Day Weather Forecast

Advertisements
Track Severe Weather on mobile